Terminal Aerodrome Forecast
Issued by NWS Upton, NY

Home | Current Version | Previous Version | Text Only | Print | Product List | Glossary On
Versions: 1 2 3 4 5 6 7 8 9 10 11 12 13 14 15 16 17 18 19 20 21 22 23 24 25 26 27 28 29
006
FTUS41 KOKX 231120
TAFBDR
TAF
KBDR 231120Z 2312/2412 VRB03KT 5SM BR SCT005 BKN020
      TEMPO 2312/2313 2SM BR BKN008
     FM231400 13007KT P6SM SCT006 BKN035
     FM231800 14010KT P6SM BKN040
     FM240000 16014KT 6SM -DZ BR SCT008 BKN025
     FM240800 16014G20KT 5SM SHRA BR SCT008 BKN015=

USA.gov is the U.S. government's official web portal to all federal, state and local government web resources and services.